createdAt,value
2022-11-01T00:02:20.044Z,100365.94
2022-11-01T00:04:49.601Z,100375.69
2022-11-01T00:07:17.695Z,100357.19
2022-11-01T00:09:45.697Z,100374.16
2022-11-01T00:12:13.844Z,100366.19
2022-11-01T00:14:41.713Z,100377.84
2022-11-01T00:17:10.398Z,100379.00
2022-11-01T00:19:38.432Z,100388.28
2022-11-01T00:22:06.562Z,100378.84
2022-11-01T00:24:34.597Z,100400.31
2022-11-01T00:27:02.517Z,100395.28
2022-11-01T00:29:30.639Z,100380.16
2022-11-01T00:31:59.764Z,100403.09
2022-11-01T00:34:27.805Z,100393.56
2022-11-01T00:36:55.993Z,100388.09
2022-11-01T00:39:28.813Z,100396.75
2022-11-01T00:42:00.143Z,100399.44
2022-11-01T00:44:34.136Z,100373.56
2022-11-01T00:47:03.381Z,100404.09
2022-11-01T00:49:32.364Z,100382.03
2022-11-01T00:52:00.545Z,100380.13
2022-11-01T00:54:30.834Z,100378.56
2022-11-01T00:56:58.833Z,100364.47
2022-11-01T00:59:26.811Z,100378.56
2022-11-01T01:01:55.077Z,100378.56
2022-11-01T01:04:23.241Z,100364.72
2022-11-01T01:06:51.211Z,100352.19
2022-11-01T01:09:19.696Z,100357.53
2022-11-01T01:11:47.791Z,100364.66
2022-11-01T01:14:15.960Z,100336.69
2022-11-01T01:16:43.991Z,100367.25
2022-11-01T01:19:12.074Z,100369.84
2022-11-01T01:21:40.464Z,100341.53
2022-11-01T01:24:08.611Z,100338.50
2022-11-01T01:26:36.948Z,100347.59
2022-11-01T01:29:05.031Z,100339.91
2022-11-01T01:31:33.445Z,100344.94
2022-11-01T01:34:02.937Z,100352.78
2022-11-01T01:36:31.205Z,100356.34
2022-11-01T01:38:59.203Z,100343.38
2022-11-01T01:41:45.984Z,100345.63
2022-11-01T01:44:51.078Z,100356.94
2022-11-01T01:47:29.383Z,100354.00
2022-11-01T01:50:18.144Z,100346.72
2022-11-01T01:53:00.299Z,100341.50
2022-11-01T01:55:42.224Z,100359.50
2022-11-01T01:58:12.027Z,100354.44
2022-11-01T02:00:42.248Z,100358.31
2022-11-01T02:03:11.659Z,100360.22
2022-11-01T02:06:02.684Z,100355.94
2022-11-01T02:08:31.556Z,100366.84
2022-11-01T02:11:03.704Z,100358.28
2022-11-01T02:13:32.506Z,100339.59
2022-11-01T02:16:22.675Z,100335.13
2022-11-01T02:19:46.551Z,100350.81
2022-11-01T02:25:34.308Z,100376.53
2022-11-01T02:28:52.309Z,100383.03
2022-11-01T02:31:54.277Z,100400.88
2022-11-01T02:34:44.131Z,100400.19
2022-11-01T02:37:27.783Z,100420.69
2022-11-01T02:40:12.373Z,100447.53
2022-11-01T02:42:52.049Z,100421.66
2022-11-01T02:45:30.649Z,100438.47
2022-11-01T02:48:03.467Z,100409.97
2022-11-01T02:50:46.431Z,100419.31
2022-11-01T02:53:15.736Z,100399.06
2022-11-01T02:58:28.760Z,100366.47
2022-11-01T03:00:57.241Z,100377.00
2022-11-01T03:03:36.259Z,100366.59
2022-11-01T03:06:04.059Z,100379.56
2022-11-01T03:09:02.558Z,100397.56
2022-11-01T03:12:03.715Z,100396.19
2022-11-01T03:15:19.509Z,100391.06
2022-11-01T03:18:01.914Z,100388.59
2022-11-01T03:21:15.863Z,100358.53
2022-11-01T03:23:55.130Z,100376.72
2022-11-01T03:26:32.127Z,100381.53
2022-11-01T03:29:06.713Z,100391.34
2022-11-01T03:31:39.367Z,100392.38
2022-11-01T03:34:15.076Z,100397.50
2022-11-01T03:36:54.045Z,100403.38
2022-11-01T03:39:36.768Z,100411.31
2022-11-01T03:42:11.881Z,100420.69
2022-11-01T03:44:52.585Z,100414.38
2022-11-01T03:47:22.162Z,100442.69
2022-11-01T03:50:13.045Z,100437.56
2022-11-01T03:52:41.225Z,100431.69
2022-11-01T03:55:19.273Z,100445.72
2022-11-01T03:57:55.164Z,100459.66
2022-11-01T04:00:27.837Z,100463.28
2022-11-01T04:02:58.510Z,100453.78
2022-11-01T04:05:29.740Z,100449.09
2022-11-01T04:07:57.766Z,100455.44
2022-11-01T04:10:29.381Z,100460.44
2022-11-01T04:12:57.920Z,100453.63
2022-11-01T04:15:46.363Z,100474.38
2022-11-01T04:18:42.810Z,100487.72
2022-11-01T04:21:17.978Z,100508.06
2022-11-01T04:23:46.308Z,100515.00
2022-11-01T04:26:17.781Z,100518.38
2022-11-01T04:28:57.128Z,100519.97
2022-11-01T04:31:37.957Z,100514.31
2022-11-01T04:34:05.917Z,100512.78
2022-11-01T04:36:34.216Z,100509.13
2022-11-01T04:39:02.072Z,100503.94
2022-11-01T04:41:30.775Z,100496.69
2022-11-01T04:44:00.438Z,100495.44
2022-11-01T04:46:34.404Z,100498.81
2022-11-01T04:49:02.219Z,100493.53
2022-11-01T04:51:30.288Z,100482.38
2022-11-01T04:53:58.097Z,100489.97
2022-11-01T04:56:25.889Z,100498.72
2022-11-01T04:58:53.675Z,100493.78
2022-11-01T05:01:21.539Z,100500.47
2022-11-01T05:03:50.731Z,100495.69
2022-11-01T05:06:19.039Z,100495.59
2022-11-01T05:08:46.781Z,100498.28
2022-11-01T05:11:14.827Z,100488.59
2022-11-01T05:13:42.592Z,100483.31
2022-11-01T05:16:25.736Z,100477.84
2022-11-01T05:18:53.559Z,100494.81
2022-11-01T05:21:21.429Z,100478.13
2022-11-01T05:23:49.444Z,100486.75
2022-11-01T05:26:17.930Z,100472.84
2022-11-01T05:28:46.087Z,100495.31
2022-11-01T05:31:14.178Z,100495.53
2022-11-01T05:33:42.117Z,100492.63
2022-11-01T05:36:10.023Z,100505.78
2022-11-01T05:38:37.997Z,100499.81
2022-11-01T05:41:06.201Z,100499.81
2022-11-01T05:43:34.353Z,100495.59
2022-11-01T05:46:08.863Z,100490.16
2022-11-01T05:48:36.794Z,100504.81
2022-11-01T05:51:04.847Z,100510.56
2022-11-01T05:53:33.244Z,100523.03
2022-11-01T05:56:00.976Z,100505.84
2022-11-01T05:58:30.768Z,100506.69
2022-11-01T06:01:06.312Z,100538.13
2022-11-01T06:03:36.919Z,100538.22
2022-11-01T06:06:05.531Z,100539.09
2022-11-01T06:08:34.085Z,100550.50
2022-11-01T06:11:04.899Z,100546.28
2022-11-01T06:13:33.829Z,100549.25
2022-11-01T06:16:06.128Z,100569.13
2022-11-01T06:18:34.149Z,100571.56
2022-11-01T06:21:02.271Z,100573.28
2022-11-01T06:23:30.325Z,100572.31
2022-11-01T06:26:03.252Z,100582.66
2022-11-01T06:28:32.159Z,100584.38
2022-11-01T06:33:37.824Z,100585.34
2022-11-01T06:36:06.579Z,100586.97
2022-11-01T06:38:34.923Z,100575.88
2022-11-01T06:41:03.162Z,100598.59
2022-11-01T06:43:31.040Z,100616.94
2022-11-01T06:46:02.467Z,100597.72
2022-11-01T06:48:31.186Z,100607.34
2022-11-01T06:50:58.957Z,100619.75
2022-11-01T06:53:27.008Z,100623.13
2022-11-01T06:55:55.194Z,100625.72
2022-11-01T06:58:23.443Z,100629.09
2022-11-01T07:00:51.780Z,100640.72
2022-11-01T07:03:19.795Z,100635.59
2022-11-01T07:05:50.264Z,100629.38
2022-11-01T07:08:18.193Z,100637.44
2022-11-01T07:10:46.025Z,100646.25
2022-11-01T07:13:14.462Z,100644.25
2022-11-01T07:15:42.539Z,100666.28
2022-11-01T07:18:10.625Z,100667.81
2022-11-01T07:20:42.482Z,100664.38
2022-11-01T07:23:17.334Z,100662.34
2022-11-01T07:25:50.388Z,100652.13
2022-11-01T07:28:19.176Z,100678.22
2022-11-01T07:30:55.365Z,100673.69
2022-11-01T07:33:23.315Z,100680.75
2022-11-01T07:35:52.399Z,100657.78
2022-11-01T07:38:20.766Z,100672.25
2022-11-01T07:40:49.606Z,100679.44
2022-11-01T07:43:18.053Z,100675.72
2022-11-01T07:45:46.939Z,100676.69
2022-11-01T07:48:18.210Z,100676.00
2022-11-01T07:50:47.101Z,100674.00
2022-11-01T07:53:18.369Z,100698.34
2022-11-01T07:55:47.517Z,100695.06
2022-11-01T07:58:16.557Z,100701.63
2022-11-01T08:00:46.057Z,100689.13
2022-11-01T08:03:16.953Z,100694.84
2022-11-01T08:05:46.963Z,100704.53
2022-11-01T08:08:21.955Z,100702.53
2022-11-01T08:10:52.386Z,100697.25
2022-11-01T08:13:23.914Z,100720.56
2022-11-01T08:15:55.069Z,100711.88
2022-11-01T08:18:24.617Z,100701.03
2022-11-01T08:20:52.799Z,100703.44
2022-11-01T08:23:26.016Z,100724.84
2022-11-01T08:25:54.154Z,100711.72
2022-11-01T08:28:30.887Z,100700.69
2022-11-01T08:31:10.912Z,100714.81
2022-11-01T08:33:38.922Z,100692.72
2022-11-01T08:36:07.244Z,100717.94
2022-11-01T08:38:35.250Z,100716.78
2022-11-01T08:41:03.588Z,100725.47
2022-11-01T08:43:33.585Z,100717.31
2022-11-01T08:46:07.816Z,100704.69
2022-11-01T08:48:35.803Z,100707.22
2022-11-01T08:51:06.722Z,100706.94
2022-11-01T08:53:39.741Z,100712.78
2022-11-01T08:56:07.964Z,100715.47
2022-11-01T08:58:35.962Z,100709.91
2022-11-01T09:01:07.779Z,100704.31
2022-11-01T09:03:36.114Z,100697.69
2022-11-01T09:06:04.415Z,100704.31
2022-11-01T09:08:56.187Z,100699.50
2022-11-01T09:11:44.068Z,100690.56
2022-11-01T09:14:14.434Z,100704.31
2022-11-01T09:16:42.333Z,100701.44
2022-11-01T09:19:10.584Z,100700.75
2022-11-01T09:21:38.420Z,100713.84
2022-11-01T09:24:15.399Z,100713.84
2022-11-01T09:26:44.335Z,100712.13
2022-11-01T09:29:21.213Z,100726.75
2022-11-01T09:31:54.496Z,100741.66
2022-11-01T09:34:23.379Z,100730.97
2022-11-01T09:36:52.604Z,100738.47
2022-11-01T09:39:22.323Z,100750.81
2022-11-01T09:42:04.067Z,100758.09
2022-11-01T09:44:40.715Z,100757.34
2022-11-01T09:47:23.890Z,100749.72
2022-11-01T09:50:33.939Z,100764.00
2022-11-01T09:53:16.355Z,100771.56
2022-11-01T09:56:23.413Z,100763.56
2022-11-01T09:59:01.775Z,100764.03
2022-11-01T10:02:09.566Z,100770.97
2022-11-01T10:05:19.666Z,100787.13
2022-11-01T10:08:31.556Z,100802.59
2022-11-01T10:11:30.064Z,100799.13
2022-11-01T10:14:28.263Z,100806.34
2022-11-01T10:17:30.621Z,100796.25
2022-11-01T10:20:00.048Z,100803.47
2022-11-01T10:22:38.619Z,100817.84
2022-11-01T10:25:28.868Z,100810.94
2022-11-01T10:28:19.228Z,100790.53
2022-11-01T10:31:06.662Z,100813.94
2022-11-01T10:33:41.686Z,100807.41
2022-11-01T10:36:32.462Z,100809.88
2022-11-01T10:39:58.035Z,100814.78
2022-11-01T10:42:32.875Z,100807.28
2022-11-01T10:45:07.745Z,100819.50
2022-11-01T10:47:35.932Z,100817.09
2022-11-01T10:50:12.672Z,100812.69
2022-11-01T10:53:11.451Z,100800.84
2022-11-01T10:56:08.125Z,100824.88
2022-11-01T10:59:40.638Z,100829.50
2022-11-01T11:02:23.593Z,100832.69
2022-11-01T11:04:52.567Z,100811.50
2022-11-01T11:07:24.319Z,100822.19
2022-11-01T11:09:52.803Z,100821.16
2022-11-01T11:12:24.054Z,100825.38
2022-11-01T11:15:04.953Z,100818.31
2022-11-01T11:17:42.562Z,100811.22
2022-11-01T11:20:12.586Z,100812.28
2022-11-01T11:22:43.305Z,100819.22
2022-11-01T11:25:23.191Z,100833.78
2022-11-01T11:27:53.408Z,100831.16
2022-11-01T11:30:34.527Z,100834.53
2022-11-01T11:33:03.377Z,100824.22
2022-11-01T11:35:34.091Z,100846.78
2022-11-01T11:38:06.908Z,100836.00
2022-11-01T11:40:41.360Z,100840.34
2022-11-01T11:43:33.938Z,100841.19
2022-11-01T11:46:21.110Z,100832.31
2022-11-01T11:48:56.873Z,100832.75
2022-11-01T11:51:29.709Z,100835.91
2022-11-01T11:54:29.098Z,100827.94
2022-11-01T11:57:27.190Z,100815.00
2022-11-01T12:00:00.576Z,100822.53
2022-11-01T12:02:41.874Z,100819.56
2022-11-01T12:05:23.296Z,100827.06
2022-11-01T12:07:57.176Z,100824.16
2022-11-01T12:10:37.188Z,100825.69
2022-11-01T12:13:28.022Z,100838.81
2022-11-01T12:16:08.247Z,100836.88
2022-11-01T12:18:52.975Z,100829.34
2022-11-01T12:21:35.159Z,100829.03
2022-11-01T12:24:05.293Z,100823.34
2022-11-01T12:26:37.742Z,100818.63
2022-11-01T12:29:37.645Z,100827.28
2022-11-01T12:32:32.297Z,100809.00
2022-11-01T12:35:21.717Z,100822.63
2022-11-01T12:38:11.449Z,100818.56
2022-11-01T12:40:43.641Z,100821.38
2022-11-01T12:43:29.335Z,100824.44
2022-11-01T12:46:19.396Z,100821.72
2022-11-01T12:49:18.287Z,100812.00
2022-11-01T12:51:54.066Z,100802.06
2022-11-01T12:54:31.891Z,100811.59
2022-11-01T12:57:00.005Z,100813.34
2022-11-01T12:59:37.790Z,100819.66
2022-11-01T13:02:08.698Z,100818.72
2022-11-01T13:04:57.493Z,100804.53
2022-11-01T13:07:44.559Z,100820.00
2022-11-01T13:10:12.702Z,100819.91
2022-11-01T13:13:13.623Z,100815.84
2022-11-01T13:16:04.696Z,100821.13
2022-11-01T13:18:50.076Z,100823.16
2022-11-01T13:21:30.700Z,100818.97
2022-11-01T13:24:31.362Z,100811.97
2022-11-01T13:27:07.865Z,100811.72
2022-11-01T13:29:54.820Z,100803.94
2022-11-01T13:32:50.302Z,100822.22
2022-11-01T13:36:00.948Z,100821.56
2022-11-01T13:38:38.092Z,100822.66
2022-11-01T13:41:39.607Z,100834.13
2022-11-01T13:44:32.212Z,100823.06
2022-11-01T13:47:24.190Z,100833.34
2022-11-01T13:50:52.140Z,100820.75
2022-11-01T13:53:25.730Z,100818.47
2022-11-01T13:56:11.104Z,100822.28
2022-11-01T13:58:41.042Z,100820.94
2022-11-01T14:01:36.949Z,100830.69
2022-11-01T14:04:14.436Z,100828.41
2022-11-01T14:07:05.171Z,100819.72
2022-11-01T14:09:42.160Z,100818.25
2022-11-01T14:12:31.981Z,100818.06
2022-11-01T14:15:13.772Z,100823.66
2022-11-01T14:17:58.078Z,100822.78
2022-11-01T14:20:28.071Z,100821.38
2022-11-01T14:22:58.302Z,100820.50
2022-11-01T14:25:32.588Z,100824.16
2022-11-01T14:28:18.687Z,100818.88
2022-11-01T14:30:51.689Z,100813.41
2022-11-01T14:33:22.743Z,100813.41
2022-11-01T14:35:59.129Z,100824.22
2022-11-01T14:38:49.269Z,100810.03
2022-11-01T14:41:20.455Z,100808.72
2022-11-01T14:46:45.591Z,100824.34
2022-11-01T14:49:29.136Z,100811.34
2022-11-01T14:52:10.908Z,100813.94
2022-11-01T14:55:00.514Z,100821.84
2022-11-01T14:57:30.636Z,100811.84
2022-11-01T15:00:12.624Z,100824.63
2022-11-01T15:02:41.184Z,100816.94
2022-11-01T15:05:18.622Z,100829.81
2022-11-01T15:07:56.106Z,100825.63
2022-11-01T15:10:24.417Z,100828.59
2022-11-01T15:13:01.627Z,100818.97
2022-11-01T15:15:37.668Z,100830.81
2022-11-01T15:18:20.913Z,100833.50
2022-11-01T15:20:55.083Z,100831.09
2022-11-01T15:23:38.930Z,100838.44
2022-11-01T15:26:14.925Z,100830.72
2022-11-01T15:28:53.883Z,100841.72
2022-11-01T15:31:24.119Z,100848.31
2022-11-01T15:34:24.485Z,100834.44
2022-11-01T15:36:54.853Z,100839.25
2022-11-01T15:39:26.494Z,100829.25
2022-11-01T15:41:55.910Z,100831.94
2022-11-01T15:44:32.518Z,100833.50
2022-11-01T15:47:04.602Z,100841.00
2022-11-01T15:49:43.529Z,100849.25
2022-11-01T15:52:20.658Z,100832.78
2022-11-01T15:55:09.445Z,100834.72
2022-11-01T15:57:48.162Z,100840.28
2022-11-01T16:00:22.896Z,100832.59
2022-11-01T16:03:13.448Z,100845.09
2022-11-01T16:05:56.910Z,100847.19
2022-11-01T16:08:42.163Z,100835.13
2022-11-01T16:11:39.862Z,100849.41
2022-11-01T16:14:37.674Z,100849.84
2022-11-01T16:17:25.537Z,100852.81
2022-11-01T16:20:24.774Z,100850.44
2022-11-01T16:22:53.436Z,100854.38
2022-11-01T16:25:28.396Z,100856.22
2022-11-01T16:28:10.489Z,100859.94
2022-11-01T16:30:46.582Z,100866.66
2022-11-01T16:33:20.582Z,100876.53
2022-11-01T16:35:58.713Z,100877.84
2022-11-01T16:38:38.472Z,100880.63
2022-11-01T16:41:15.461Z,100885.31
2022-11-01T16:43:44.255Z,100877.66
2022-11-01T16:46:14.846Z,100879.00
2022-11-01T16:48:58.373Z,100893.41
2022-11-01T16:51:31.102Z,100868.22
2022-11-01T16:54:01.847Z,100885.94
2022-11-01T16:56:38.493Z,100881.09
2022-11-01T16:59:43.648Z,100898.94
2022-11-01T17:02:24.217Z,100894.16
2022-11-01T17:04:58.788Z,100896.16
2022-11-01T17:07:27.729Z,100913.41
2022-11-01T17:09:55.810Z,100905.81
2022-11-01T17:12:24.518Z,100905.75
2022-11-01T17:14:53.170Z,100926.19
2022-11-01T17:17:25.026Z,100920.13
2022-11-01T17:20:00.857Z,100924.72
2022-11-01T17:22:36.698Z,100924.97
2022-11-01T17:25:07.461Z,100934.75
2022-11-01T17:27:36.703Z,100922.78
2022-11-01T17:30:05.597Z,100932.41
2022-11-01T17:32:34.505Z,100940.38
2022-11-01T17:35:03.274Z,100941.53
2022-11-01T17:37:35.555Z,100943.66
2022-11-01T17:40:18.992Z,100935.59
2022-11-01T17:42:48.127Z,100958.03
2022-11-01T17:45:17.928Z,100945.72
2022-11-01T17:47:46.772Z,100945.19
2022-11-01T17:50:17.534Z,100951.28
2022-11-01T17:52:47.841Z,100935.91
2022-11-01T17:55:16.606Z,100950.41
2022-11-01T17:57:44.851Z,100951.97
2022-11-01T18:00:15.495Z,100957.41
2022-11-01T18:02:44.570Z,100953.09
2022-11-01T18:05:14.083Z,100955.06
2022-11-01T18:07:47.725Z,100955.16
2022-11-01T18:10:39.050Z,100967.06
2022-11-01T18:13:40.033Z,100950.16
2022-11-01T18:16:32.945Z,100951.47
2022-11-01T18:19:28.948Z,100967.59
2022-11-01T18:22:10.658Z,100974.97
2022-11-01T18:25:26.536Z,100977.16
2022-11-01T18:27:58.929Z,100965.88
2022-11-01T18:30:28.814Z,100972.91
2022-11-01T18:33:06.279Z,100969.41
2022-11-01T18:36:08.580Z,100977.78
2022-11-01T18:39:13.316Z,100981.47
2022-11-01T18:41:48.837Z,100978.09
2022-11-01T18:44:19.229Z,100973.63
2022-11-01T18:47:21.956Z,100969.16
2022-11-01T18:49:51.256Z,100960.75
2022-11-01T18:52:20.253Z,100972.22
2022-11-01T18:54:56.681Z,100973.16
2022-11-01T18:57:31.250Z,100965.25
2022-11-01T19:00:01.385Z,100966.41
2022-11-01T19:02:31.838Z,100962.00
2022-11-01T19:05:23.022Z,100966.63
2022-11-01T19:08:20.341Z,100968.66
2022-11-01T19:10:51.560Z,100960.09
2022-11-01T19:13:32.576Z,100946.25
2022-11-01T19:16:06.666Z,100952.56
2022-11-01T19:18:38.171Z,100958.88
2022-11-01T19:21:22.641Z,100956.19
2022-11-01T19:23:58.785Z,100956.31
2022-11-01T19:26:41.712Z,100963.38
2022-11-01T19:29:26.766Z,100962.59
2022-11-01T19:31:59.335Z,100959.16
2022-11-01T19:34:43.474Z,100962.63
2022-11-01T19:37:37.435Z,100969.88
2022-11-01T19:40:27.823Z,100970.09
2022-11-01T19:43:00.679Z,100962.44
2022-11-01T19:45:34.097Z,100964.53
2022-11-01T19:48:04.803Z,100964.88
2022-11-01T19:50:46.895Z,100967.56
2022-11-01T19:53:40.547Z,100967.88
2022-11-01T19:56:24.532Z,100962.97
2022-11-01T19:59:04.816Z,100963.97
2022-11-01T20:01:43.234Z,100962.31
2022-11-01T20:04:29.718Z,100955.41
2022-11-01T20:07:20.901Z,100976.56
2022-11-01T20:09:58.281Z,100957.41
2022-11-01T20:12:28.702Z,100966.34
2022-11-01T20:14:57.730Z,100969.44
2022-11-01T20:17:28.869Z,100972.28
2022-11-01T20:19:59.530Z,100969.72
2022-11-01T20:22:30.478Z,100967.50
2022-11-01T20:25:00.955Z,100985.19
2022-11-01T20:27:31.765Z,100984.44
2022-11-01T20:30:07.009Z,100980.78
2022-11-01T20:32:37.970Z,100967.84
2022-11-01T20:35:07.141Z,100983.41
2022-11-01T20:37:38.555Z,100998.97
2022-11-01T20:40:12.500Z,100986.66
2022-11-01T20:42:43.946Z,100995.50
2022-11-01T20:47:56.316Z,100995.00
2022-11-01T20:50:25.356Z,101004.03
2022-11-01T20:52:54.879Z,100999.16
2022-11-01T20:55:24.653Z,100995.66
2022-11-01T20:57:54.087Z,101001.00
2022-11-01T21:00:23.986Z,101005.59
2022-11-01T21:05:58.129Z,101016.75
2022-11-01T21:08:35.148Z,101002.00
2022-11-01T21:11:58.174Z,100991.84
2022-11-01T21:14:45.737Z,101014.94
2022-11-01T21:23:47.792Z,101022.19
2022-11-01T21:27:00.825Z,101034.41
2022-11-01T21:29:40.239Z,101024.00
2022-11-01T21:32:52.760Z,101030.19
2022-11-01T21:36:17.036Z,101020.88
2022-11-01T21:39:12.729Z,101028.00
2022-11-01T21:42:07.758Z,101022.03
2022-11-01T21:45:51.435Z,101035.09
2022-11-01T21:48:54.897Z,101042.25
2022-11-01T21:51:40.829Z,101025.84
2022-11-01T21:54:24.354Z,101029.47
2022-11-01T21:57:46.263Z,101045.22
2022-11-01T22:00:34.937Z,101026.28
2022-11-01T22:03:03.694Z,101030.56
2022-11-01T22:05:35.609Z,101037.81
2022-11-01T22:08:04.599Z,101049.19
2022-11-01T22:10:33.443Z,101060.72
2022-11-01T22:13:06.500Z,101039.59
2022-11-01T22:15:38.365Z,101023.63
2022-11-01T22:18:06.547Z,101029.97
2022-11-01T22:20:34.841Z,101059.03
2022-11-01T22:23:04.200Z,101043.16
2022-11-01T22:25:35.087Z,101053.56
2022-11-01T22:28:04.328Z,101044.84
2022-11-01T22:30:32.637Z,101043.16
2022-11-01T22:33:06.861Z,101035.19
2022-11-01T22:35:34.935Z,101054.59
2022-11-01T22:38:41.816Z,101046.75
2022-11-01T22:41:32.810Z,101038.94
2022-11-01T22:44:30.822Z,101048.75
2022-11-01T22:47:03.099Z,101051.41
2022-11-01T22:49:35.493Z,101057.63
2022-11-01T22:52:34.200Z,101069.19
2022-11-01T22:55:10.603Z,101055.94
2022-11-01T22:57:54.245Z,101055.13
2022-11-01T23:00:29.363Z,101050.69
2022-11-01T23:03:30.729Z,101040.38
2022-11-01T23:06:02.177Z,101048.47
2022-11-01T23:08:32.777Z,101049.09
2022-11-01T23:11:03.626Z,101052.47
2022-11-01T23:13:52.907Z,101040.25
2022-11-01T23:16:44.166Z,101047.19
2022-11-01T23:19:14.265Z,101061.41
2022-11-01T23:21:42.384Z,101061.41
2022-11-01T23:24:10.657Z,101047.34
2022-11-01T23:26:38.762Z,101065.00
2022-11-01T23:29:07.253Z,101063.28
2022-11-01T23:31:35.495Z,101065.06
2022-11-01T23:34:13.320Z,101067.75
2022-11-01T23:36:42.072Z,101041.34
2022-11-01T23:39:15.294Z,101061.47
2022-11-01T23:41:50.529Z,101061.50
2022-11-01T23:44:27.814Z,101058.69
2022-11-01T23:47:21.163Z,101050.63
2022-11-01T23:50:04.439Z,101049.84
2022-11-01T23:53:15.680Z,101052.63
2022-11-01T23:55:52.300Z,101046.41
2022-11-01T23:58:31.374Z,101048.38
